Sea Drift — WDC2818 — position and weather

sailwx.info

Track history (hours):
 
Tides and Currents Weather Stations Pressure Air Temp Water Temp Dewpoint Dewpoint Depression Visibility Wind Speed Wind Dir Waves Ship Positions

Sea Drift

Owner: Marquette Transportation Company Gulf-Inland, LLC, Jefferson, LA. More information available from US FCC via Universal Licensing System and Coast Guard Vessel Documentation Center.

Last reported at 2015-Jan-28 21:34 UTC. Time now 2015-Jan-28 22:21 UTC.
Position N 29°46' W 095°06'.

Length 23 m; draft 3 m.

Type: Towing. MMSI: 366998080.

Date/timePositionNaut miles runAvg speedWind from/ knotsBaromVisibWave heightAir tempDewpointWater temp
2015-Jan-28 21:34N 29°46' W 095°06'0 0.2
2015-Jan-28 20:34N 29°46' W 095°05'1 1.4
2015-Jan-28 19:34N 29°47' W 095°04'2 2.0
2015-Jan-28 18:34N 29°45' W 095°06'0 0.0
2015-Jan-28 17:34N 29°45' W 095°06'0 0.0
2015-Jan-28 16:33N 29°45' W 095°06'2 2.3
2015-Jan-28 15:33N 29°47' W 095°04'0 0.2
2015-Jan-28 14:34N 29°47' W 095°04'2 1.9
2015-Jan-28 13:34N 29°46' W 095°06'0 0.4
2015-Jan-28 12:33N 29°46' W 095°06'0 0.0
2015-Jan-28 11:34N 29°46' W 095°06'2 1.6
2015-Jan-28 10:34N 29°45' W 095°04'6 6.3
2015-Jan-28 09:34N 29°41' W 094°59'7 7.3
2015-Jan-28 08:33N 29°34' W 094°55'17 5.0
2015-Jan-28 05:13N 29°17' W 094°56'1 0.1
2015-Jan-27 14:33N 29°17' W 094°57'13 2.2
2015-Jan-27 08:26N 29°24' W 094°45'5 4.3
2015-Jan-27 07:15N 29°26' W 094°50'7 8.3
2015-Jan-27 06:26N 29°32' W 094°54'7 8.1
2015-Jan-27 05:33N 29°38' W 094°58'8 7.5
2015-Jan-27 04:33N 29°44' W 095°03'3 3.4
2015-Jan-27 03:34N 29°47' W 095°04'3 3.1
2015-Jan-27 02:33N 29°44' W 095°03'7 6.7
2015-Jan-27 01:34N 29°40' W 094°58'9 8.7
2015-Jan-27 00:33N 29°32' W 094°54'9 8.7
2015-Jan-26 23:30N 29°24' W 094°49'9 2.2
2015-Jan-26 19:18N 29°17' W 094°56'13 0.8
2015-Jan-26 03:12N 29°30' W 094°52'5 7.6
2015-Jan-26 02:33N 29°34' W 094°56'8 7.7
2015-Jan-26 01:33N 29°41' W 094°59'7 7.1
2015-Jan-26 00:33N 29°46' W 095°05'0 0.1
2015-Jan-25 22:30N 29°46' W 095°06'1 1.2
2015-Jan-25 21:30N 29°47' W 095°05'0 0.0
2015-Jan-25 15:12N 29°47' W 095°06'0 0.0
2015-Jan-25 14:32N 29°47' W 095°06'0 0.2
2015-Jan-25 13:34N 29°47' W 095°05'4 3.1
2015-Jan-25 12:25N 29°44' W 095°08'5 6.4
2015-Jan-25 11:33N 29°44' W 095°14'1 1.3
2015-Jan-25 10:33N 29°44' W 095°15'6 6.0
2015-Jan-25 09:30N 29°44' W 095°08'5 5.1
2015-Jan-25 08:34N 29°47' W 095°04'1 1.0
2015-Jan-25 07:34N 29°47' W 095°05'1 0.9
2015-Jan-25 06:34N 29°46' W 095°05'0 0.2
2015-Jan-25 05:15N 29°46' W 095°06'0 0.0
2015-Jan-25 03:18N 29°46' W 095°06'2 2.5
2015-Jan-25 02:33N 29°47' W 095°04'0 0.2
2015-Jan-25 01:31N 29°47' W 095°04'4 3.6
2015-Jan-25 00:29N 29°44' W 095°02'5 5.1
2015-Jan-24 23:34N 29°40' W 094°59'6 5.8
2015-Jan-24 22:34N 29°35' W 094°56'6 5.9
2015-Jan-24 21:34N 29°30' W 094°52'6 5.9
2015-Jan-24 20:32N 29°25' W 094°49'9 4.2
2015-Jan-24 18:23N 29°17' W 094°56'  
Track history (hours):
 
Tides and Currents Weather Stations Pressure Air Temp Water Temp Dewpoint Dewpoint Depression Visibility Wind Speed Wind Dir Waves Ship Positions

Sea Drift

Owner: Marquette Transportation Company Gulf-Inland, LLC, Jefferson, LA. More information available from US FCC via Universal Licensing System and Coast Guard Vessel Documentation Center.

Last reported at 2015-Jan-28 21:34 UTC. Time now 2015-Jan-28 22:21 UTC.
Position N 29°46' W 095°06'.

Length 23 m; draft 3 m.

Type: Towing. MMSI: 366998080.

Date/timePositionNaut miles runAvg speedWind from/ knotsBaromVisibWave heightAir tempDewpointWater temp
2015-Jan-28 21:34N 29°46' W 095°06'0 0.2
2015-Jan-28 20:34N 29°46' W 095°05'1 1.4
2015-Jan-28 19:34N 29°47' W 095°04'2 2.0
2015-Jan-28 18:34N 29°45' W 095°06'0 0.0
2015-Jan-28 17:34N 29°45' W 095°06'0 0.0
2015-Jan-28 16:33N 29°45' W 095°06'2 2.3
2015-Jan-28 15:33N 29°47' W 095°04'0 0.2
2015-Jan-28 14:34N 29°47' W 095°04'2 1.9
2015-Jan-28 13:34N 29°46' W 095°06'0 0.4
2015-Jan-28 12:33N 29°46' W 095°06'0 0.0
2015-Jan-28 11:34N 29°46' W 095°06'2 1.6
2015-Jan-28 10:34N 29°45' W 095°04'6 6.3
2015-Jan-28 09:34N 29°41' W 094°59'7 7.3
2015-Jan-28 08:33N 29°34' W 094°55'17 5.0
2015-Jan-28 05:13N 29°17' W 094°56'1 0.1
2015-Jan-27 14:33N 29°17' W 094°57'13 2.2
2015-Jan-27 08:26N 29°24' W 094°45'5 4.3
2015-Jan-27 07:15N 29°26' W 094°50'7 8.3
2015-Jan-27 06:26N 29°32' W 094°54'7 8.1
2015-Jan-27 05:33N 29°38' W 094°58'8 7.5
2015-Jan-27 04:33N 29°44' W 095°03'3 3.4
2015-Jan-27 03:34N 29°47' W 095°04'3 3.1
2015-Jan-27 02:33N 29°44' W 095°03'7 6.7
2015-Jan-27 01:34N 29°40' W 094°58'9 8.7
2015-Jan-27 00:33N 29°32' W 094°54'9 8.7
2015-Jan-26 23:30N 29°24' W 094°49'9 2.2
2015-Jan-26 19:18N 29°17' W 094°56'13 0.8
2015-Jan-26 03:12N 29°30' W 094°52'5 7.6
2015-Jan-26 02:33N 29°34' W 094°56'8 7.7
2015-Jan-26 01:33N 29°41' W 094°59'7 7.1
2015-Jan-26 00:33N 29°46' W 095°05'0 0.1
2015-Jan-25 22:30N 29°46' W 095°06'1 1.2
2015-Jan-25 21:30N 29°47' W 095°05'0 0.0
2015-Jan-25 15:12N 29°47' W 095°06'0 0.0
2015-Jan-25 14:32N 29°47' W 095°06'0 0.2
2015-Jan-25 13:34N 29°47' W 095°05'4 3.1
2015-Jan-25 12:25N 29°44' W 095°08'5 6.4
2015-Jan-25 11:33N 29°44' W 095°14'1 1.3
2015-Jan-25 10:33N 29°44' W 095°15'6 6.0
2015-Jan-25 09:30N 29°44' W 095°08'5 5.1
2015-Jan-25 08:34N 29°47' W 095°04'1 1.0
2015-Jan-25 07:34N 29°47' W 095°05'1 0.9
2015-Jan-25 06:34N 29°46' W 095°05'0 0.2
2015-Jan-25 05:15N 29°46' W 095°06'0 0.0
2015-Jan-25 03:18N 29°46' W 095°06'2 2.5
2015-Jan-25 02:33N 29°47' W 095°04'0 0.2
2015-Jan-25 01:31N 29°47' W 095°04'4 3.6
2015-Jan-25 00:29N 29°44' W 095°02'5 5.1
2015-Jan-24 23:34N 29°40' W 094°59'6 5.8
2015-Jan-24 22:34N 29°35' W 094°56'6 5.9
2015-Jan-24 21:34N 29°30' W 094°52'6 5.9
2015-Jan-24 20:32N 29°25' W 094°49'9 4.2
2015-Jan-24 18:23N 29°17' W 094°56'  

Dump ship's entire track history